createdAt,value
2023-05-10T00:00:39.416Z,100024.72
2023-05-10T00:03:07.980Z,100028.28
2023-05-10T00:05:37.680Z,100042.41
2023-05-10T00:08:06.389Z,100039.84
2023-05-10T00:10:34.898Z,100035.56
2023-05-10T00:13:03.717Z,100030.28
2023-05-10T00:15:32.485Z,100039.13
2023-05-10T00:18:01.393Z,100037.41
2023-05-10T00:20:29.641Z,100036.66
2023-05-10T00:22:59.206Z,100028.63
2023-05-10T00:25:27.524Z,100028.78
2023-05-10T00:27:56.292Z,100037.56
2023-05-10T00:30:24.974Z,100035.88
2023-05-10T00:32:53.543Z,100040.34
2023-05-10T00:35:22.559Z,100036.88
2023-05-10T00:37:51.094Z,100042.16
2023-05-10T00:40:20.841Z,100036.03
2023-05-10T00:42:54.389Z,100038.72
2023-05-10T00:45:23.131Z,100033.53
2023-05-10T00:47:53.154Z,100029.19
2023-05-10T00:50:22.134Z,100028.25
2023-05-10T00:52:51.274Z,100038.88
2023-05-10T00:55:21.035Z,100033.59
2023-05-10T00:57:49.914Z,100031.91
2023-05-10T01:00:19.668Z,100037.19
2023-05-10T01:02:48.383Z,100038.03
2023-05-10T01:05:17.600Z,100037.28
2023-05-10T01:07:46.182Z,100043.47
2023-05-10T01:10:15.220Z,100038.19
2023-05-10T01:12:48.459Z,100049.59
2023-05-10T01:15:18.262Z,100047.03
2023-05-10T01:17:48.816Z,100046.19
2023-05-10T01:20:17.860Z,100039.19
2023-05-10T01:23:32.377Z,100053.69
2023-05-10T01:26:21.629Z,100052.16
2023-05-10T01:29:41.166Z,100049.28
2023-05-10T01:32:34.360Z,100052.00
2023-05-10T01:35:08.329Z,100048.72
2023-05-10T01:37:47.332Z,100048.59
2023-05-10T01:40:25.145Z,100055.75
2023-05-10T01:43:01.902Z,100062.88
2023-05-10T01:45:37.908Z,100058.59
2023-05-10T01:48:11.006Z,100061.28
2023-05-10T01:50:45.724Z,100064.72
2023-05-10T01:53:15.477Z,100061.28
2023-05-10T01:55:53.082Z,100069.19
2023-05-10T01:58:27.039Z,100071.00
2023-05-10T02:00:57.603Z,100079.75
2023-05-10T02:03:30.117Z,100076.22
2023-05-10T02:06:01.305Z,100072.63
2023-05-10T02:08:30.192Z,100081.47
2023-05-10T02:11:00.525Z,100076.22
2023-05-10T02:13:31.758Z,100076.22
2023-05-10T02:16:01.621Z,100077.13
2023-05-10T02:18:32.978Z,100081.41
2023-05-10T02:21:03.294Z,100075.38
2023-05-10T02:23:32.501Z,100077.00
2023-05-10T02:26:03.269Z,100074.38
2023-05-10T02:28:33.010Z,100077.00
2023-05-10T02:31:01.614Z,100088.41
2023-05-10T02:33:33.736Z,100084.75
2023-05-10T02:36:03.620Z,100076.84
2023-05-10T02:38:34.559Z,100077.75
2023-05-10T02:41:06.479Z,100080.25
2023-05-10T02:43:35.875Z,100068.94
2023-05-10T02:46:04.764Z,100074.22
2023-05-10T02:48:34.503Z,100082.13
2023-05-10T02:51:09.233Z,100081.19
2023-05-10T02:53:40.460Z,100083.06
2023-05-10T02:56:16.614Z,100076.69
2023-05-10T02:58:45.192Z,100087.56
2023-05-10T03:01:13.861Z,100086.59
2023-05-10T03:03:43.807Z,100084.75
2023-05-10T03:06:12.550Z,100083.81
2023-05-10T03:08:41.405Z,100084.59
2023-05-10T03:11:34.068Z,100095.72
2023-05-10T03:14:22.614Z,100095.00
2023-05-10T03:17:06.082Z,100104.63
2023-05-10T03:19:50.762Z,100099.34
2023-05-10T03:22:26.731Z,100099.41
2023-05-10T03:24:58.710Z,100107.41
2023-05-10T03:27:31.522Z,100110.06
2023-05-10T03:30:01.758Z,100107.41
2023-05-10T03:32:32.971Z,100113.47
2023-05-10T03:35:03.340Z,100109.97
2023-05-10T03:37:32.154Z,100112.59
2023-05-10T03:40:00.724Z,100114.31
2023-05-10T03:42:29.214Z,100114.25
2023-05-10T03:44:57.562Z,100105.47
2023-05-10T03:47:26.840Z,100104.47
2023-05-10T03:49:55.382Z,100107.13
2023-05-10T03:52:26.271Z,100104.38
2023-05-10T03:54:54.822Z,100107.13
2023-05-10T03:57:23.493Z,100104.47
2023-05-10T03:59:52.083Z,100107.25
2023-05-10T04:02:20.305Z,100102.94
2023-05-10T04:04:49.166Z,100103.94
2023-05-10T04:07:17.743Z,100103.22
2023-05-10T04:09:47.333Z,100106.94
2023-05-10T04:12:15.595Z,100112.50
2023-05-10T04:14:44.111Z,100116.22
2023-05-10T04:17:12.776Z,100119.00
2023-05-10T04:19:41.361Z,100119.22
2023-05-10T04:22:10.085Z,100121.94
2023-05-10T04:24:38.631Z,100124.63
2023-05-10T04:27:08.209Z,100128.13
2023-05-10T04:29:36.687Z,100129.22
2023-05-10T04:32:05.536Z,100125.78
2023-05-10T04:34:35.070Z,100124.22
2023-05-10T04:37:03.577Z,100134.78
2023-05-10T04:39:32.080Z,100130.44
2023-05-10T04:42:00.618Z,100126.88
2023-05-10T04:44:30.440Z,100135.47
2023-05-10T04:46:59.000Z,100134.63
2023-05-10T04:49:27.554Z,100139.75
2023-05-10T04:51:56.090Z,100151.00
2023-05-10T04:54:24.336Z,100151.00
2023-05-10T04:56:52.964Z,100159.72
2023-05-10T04:59:22.100Z,100170.19
2023-05-10T05:01:51.685Z,100171.81
2023-05-10T05:04:20.230Z,100163.84
2023-05-10T05:06:48.749Z,100168.13
2023-05-10T05:09:17.327Z,100168.88
2023-05-10T05:11:45.863Z,100166.25
2023-05-10T05:14:14.383Z,100170.63
2023-05-10T05:16:42.943Z,100172.22
2023-05-10T05:19:12.527Z,100173.88
2023-05-10T05:21:41.759Z,100174.66
2023-05-10T05:24:11.134Z,100177.09
2023-05-10T05:26:39.816Z,100178.66
2023-05-10T05:29:09.103Z,100178.50
2023-05-10T05:31:37.807Z,100178.22
2023-05-10T05:34:06.330Z,100178.88
2023-05-10T05:36:39.226Z,100181.22
2023-05-10T05:39:07.890Z,100181.97
2023-05-10T05:41:36.382Z,100183.63
2023-05-10T05:44:04.977Z,100173.75
2023-05-10T05:46:33.515Z,100182.31
2023-05-10T05:49:02.287Z,100180.31
2023-05-10T05:51:30.869Z,100194.16
2023-05-10T05:54:00.653Z,100183.19
2023-05-10T05:56:29.210Z,100189.13
2023-05-10T05:58:57.553Z,100187.00
2023-05-10T06:01:25.730Z,100192.78
2023-05-10T06:03:54.323Z,100191.59
2023-05-10T06:06:22.925Z,100199.28
2023-05-10T06:08:51.496Z,100199.97
2023-05-10T06:11:21.416Z,100200.69
2023-05-10T06:13:49.977Z,100211.97
2023-05-10T06:16:18.708Z,100209.06
2023-05-10T06:18:46.932Z,100208.06
2023-05-10T06:21:15.810Z,100215.75
2023-05-10T06:23:44.781Z,100213.72
2023-05-10T06:26:14.693Z,100217.06
2023-05-10T06:28:44.383Z,100219.56
2023-05-10T06:31:13.384Z,100221.19
2023-05-10T06:33:42.184Z,100225.44
2023-05-10T06:36:10.778Z,100233.22
2023-05-10T06:38:39.362Z,100226.06
2023-05-10T06:41:08.208Z,100223.22
2023-05-10T06:43:37.955Z,100212.50
2023-05-10T06:46:08.674Z,100217.44
2023-05-10T06:48:37.320Z,100214.81
2023-05-10T06:51:05.976Z,100224.28
2023-05-10T06:53:34.594Z,100229.41
2023-05-10T06:56:04.450Z,100220.53
2023-05-10T06:58:33.879Z,100219.50
2023-05-10T07:01:07.463Z,100228.91
2023-05-10T07:03:36.223Z,100225.50
2023-05-10T07:06:05.429Z,100219.97
2023-05-10T07:08:34.275Z,100221.59
2023-05-10T07:11:04.555Z,100221.44
2023-05-10T07:13:33.427Z,100221.31
2023-05-10T07:16:02.968Z,100222.94
2023-05-10T07:18:33.315Z,100228.78
2023-05-10T07:21:01.864Z,100231.34
2023-05-10T07:23:30.529Z,100229.53
2023-05-10T07:26:00.352Z,100232.69
2023-05-10T07:28:28.925Z,100238.72
2023-05-10T07:30:57.622Z,100242.94
2023-05-10T07:33:26.178Z,100250.66
2023-05-10T07:35:55.905Z,100246.03
2023-05-10T07:38:24.455Z,100246.03
2023-05-10T07:40:52.951Z,100245.69
2023-05-10T07:43:21.135Z,100245.53
2023-05-10T07:45:49.665Z,100240.66
2023-05-10T07:48:18.176Z,100253.41
2023-05-10T07:50:46.668Z,100244.16
2023-05-10T07:53:16.236Z,100240.16
2023-05-10T07:55:44.750Z,100241.59
2023-05-10T07:58:13.246Z,100252.03
2023-05-10T08:00:42.193Z,100243.34
2023-05-10T08:03:10.951Z,100251.00
2023-05-10T08:05:39.680Z,100255.09
2023-05-10T08:08:07.915Z,100246.03
2023-05-10T08:10:37.514Z,100258.66
2023-05-10T08:13:05.720Z,100249.22
2023-05-10T08:15:33.979Z,100250.72
2023-05-10T08:18:02.267Z,100242.59
2023-05-10T08:20:30.831Z,100243.03
2023-05-10T08:22:59.439Z,100244.56
2023-05-10T08:25:28.029Z,100248.16
2023-05-10T08:27:57.593Z,100240.84
2023-05-10T08:30:26.125Z,100239.28
2023-05-10T08:32:54.634Z,100239.66
2023-05-10T08:35:23.154Z,100240.00
2023-05-10T08:37:51.371Z,100240.88
2023-05-10T08:40:21.851Z,100244.72
2023-05-10T08:43:01.277Z,100248.97
2023-05-10T08:45:33.913Z,100252.63
2023-05-10T08:48:04.305Z,100242.72
2023-05-10T08:50:33.305Z,100259.22
2023-05-10T08:53:05.884Z,100264.88
2023-05-10T08:55:34.976Z,100258.69
2023-05-10T08:58:05.405Z,100262.00
2023-05-10T09:00:34.039Z,100259.13
2023-05-10T09:03:03.648Z,100261.34
2023-05-10T09:05:32.382Z,100264.22
2023-05-10T09:08:01.480Z,100277.44
2023-05-10T09:10:31.782Z,100265.84
2023-05-10T09:13:00.505Z,100256.75
2023-05-10T09:15:30.056Z,100271.25
2023-05-10T09:18:00.368Z,100273.25
2023-05-10T09:20:29.018Z,100272.19
2023-05-10T09:22:57.614Z,100272.19
2023-05-10T09:25:26.178Z,100265.16
2023-05-10T09:27:55.111Z,100277.50
2023-05-10T09:30:29.346Z,100279.22
2023-05-10T09:32:59.191Z,100282.63
2023-05-10T09:35:30.441Z,100290.72
2023-05-10T09:38:03.149Z,100293.38
2023-05-10T09:40:32.020Z,100288.84
2023-05-10T09:43:02.539Z,100289.91
2023-05-10T09:45:36.219Z,100284.13
2023-05-10T09:48:07.537Z,100294.13
2023-05-10T09:50:36.348Z,100290.88
2023-05-10T09:53:05.730Z,100286.59
2023-05-10T09:55:45.176Z,100291.91
2023-05-10T09:58:13.981Z,100284.66
2023-05-10T10:00:45.876Z,100289.94
2023-05-10T10:03:19.004Z,100303.59
2023-05-10T10:05:49.808Z,100299.63
2023-05-10T10:08:19.995Z,100308.94
2023-05-10T10:10:50.494Z,100295.88
2023-05-10T10:13:19.090Z,100318.59
2023-05-10T10:15:52.102Z,100299.16
2023-05-10T10:18:24.774Z,100299.47
2023-05-10T10:20:54.453Z,100297.56
2023-05-10T10:23:22.962Z,100296.91
2023-05-10T10:25:52.863Z,100303.47
2023-05-10T10:28:36.938Z,100295.72
2023-05-10T10:31:23.227Z,100302.44
2023-05-10T10:34:03.908Z,100295.53
2023-05-10T10:36:34.783Z,100300.13
2023-05-10T10:39:05.087Z,100287.25
2023-05-10T10:41:35.921Z,100297.06
2023-05-10T10:44:37.555Z,100296.84
2023-05-10T10:47:29.198Z,100296.81
2023-05-10T10:50:09.779Z,100288.69
2023-05-10T10:52:39.988Z,100300.16
2023-05-10T10:55:10.493Z,100291.00
2023-05-10T10:57:51.916Z,100289.13
2023-05-10T11:00:32.350Z,100303.28
2023-05-10T11:03:07.380Z,100292.38
2023-05-10T11:05:42.628Z,100300.28
2023-05-10T11:08:20.060Z,100291.28
2023-05-10T11:11:04.866Z,100295.53
2023-05-10T11:13:35.430Z,100293.09
2023-05-10T11:16:19.534Z,100298.53
2023-05-10T11:19:03.214Z,100302.53
2023-05-10T11:21:32.525Z,100303.53
2023-05-10T11:24:06.521Z,100314.81
2023-05-10T11:26:37.479Z,100306.16
2023-05-10T11:29:06.315Z,100307.56
2023-05-10T11:31:34.987Z,100307.03
2023-05-10T11:34:04.728Z,100301.78
2023-05-10T11:36:37.319Z,100309.72
2023-05-10T11:39:06.933Z,100295.69
2023-05-10T11:41:35.737Z,100302.59
2023-05-10T11:44:04.430Z,100295.13
2023-05-10T11:46:33.213Z,100295.31
2023-05-10T11:49:05.430Z,100292.25
2023-05-10T11:51:37.217Z,100310.47
2023-05-10T11:54:10.489Z,100311.94
2023-05-10T11:56:39.801Z,100302.69
2023-05-10T11:59:08.884Z,100315.50
2023-05-10T12:01:37.996Z,100304.50
2023-05-10T12:04:07.856Z,100326.88
2023-05-10T12:06:43.039Z,100319.81
2023-05-10T12:09:11.837Z,100315.13
2023-05-10T12:11:44.234Z,100320.81
2023-05-10T12:14:13.550Z,100323.81
2023-05-10T12:16:42.413Z,100321.53
2023-05-10T12:19:12.261Z,100319.50
2023-05-10T12:21:42.432Z,100321.31
2023-05-10T12:24:11.488Z,100314.25
2023-05-10T12:26:39.738Z,100319.50
2023-05-10T12:29:18.532Z,100314.00
2023-05-10T12:31:59.832Z,100324.19
2023-05-10T12:34:34.244Z,100330.75
2023-05-10T12:37:03.910Z,100329.69
2023-05-10T12:39:42.434Z,100334.91
2023-05-10T12:42:11.769Z,100340.88
2023-05-10T12:44:41.725Z,100339.56
2023-05-10T12:47:10.307Z,100341.34
2023-05-10T12:49:40.138Z,100340.38
2023-05-10T12:52:08.717Z,100343.56
2023-05-10T12:54:37.263Z,100344.63
2023-05-10T12:57:05.811Z,100344.09
2023-05-10T12:59:35.872Z,100345.28
2023-05-10T13:02:05.378Z,100343.47
2023-05-10T13:04:33.615Z,100340.22
2023-05-10T13:07:04.242Z,100336.44
2023-05-10T13:09:32.822Z,100352.06
2023-05-10T13:12:01.420Z,100336.38
2023-05-10T13:14:30.026Z,100338.31
2023-05-10T13:16:58.670Z,100329.75
2023-05-10T13:19:27.816Z,100333.50
2023-05-10T13:21:56.446Z,100344.56
2023-05-10T13:24:26.238Z,100335.53
2023-05-10T13:26:54.716Z,100347.50
2023-05-10T13:29:23.526Z,100343.75
2023-05-10T13:31:52.274Z,100334.59
2023-05-10T13:34:22.368Z,100333.59
2023-05-10T13:36:51.125Z,100335.91
2023-05-10T13:39:21.635Z,100340.06
2023-05-10T13:41:51.809Z,100332.81
2023-05-10T13:44:22.322Z,100333.88
2023-05-10T13:46:50.874Z,100336.88
2023-05-10T13:49:19.476Z,100332.13
2023-05-10T13:51:48.147Z,100331.22
2023-05-10T13:54:18.350Z,100342.69
2023-05-10T13:56:48.257Z,100338.72
2023-05-10T13:59:17.841Z,100327.34
2023-05-10T14:01:46.439Z,100336.16
2023-05-10T14:04:15.007Z,100324.25
2023-05-10T14:06:43.212Z,100337.88
2023-05-10T14:09:11.762Z,100327.88
2023-05-10T14:11:42.702Z,100328.25
2023-05-10T14:14:11.298Z,100325.13
2023-05-10T14:16:43.456Z,100313.50
2023-05-10T14:19:12.313Z,100316.06
2023-05-10T14:21:40.653Z,100320.28
2023-05-10T14:24:09.294Z,100318.09
2023-05-10T14:26:37.816Z,100311.75
2023-05-10T14:29:06.062Z,100313.09
2023-05-10T14:31:34.839Z,100312.16
2023-05-10T14:34:04.509Z,100308.16
2023-05-10T14:36:33.081Z,100307.47
2023-05-10T14:39:01.279Z,100306.34
2023-05-10T14:41:31.172Z,100307.94
2023-05-10T14:43:59.790Z,100315.97
2023-05-10T14:46:28.580Z,100313.00
2023-05-10T14:48:57.139Z,100310.53
2023-05-10T14:51:26.943Z,100304.22
2023-05-10T14:53:55.472Z,100318.00
2023-05-10T14:56:23.969Z,100306.22
2023-05-10T14:58:52.663Z,100310.47
2023-05-10T15:01:21.753Z,100302.66
2023-05-10T15:03:50.762Z,100312.59
2023-05-10T15:06:24.818Z,100296.25
2023-05-10T15:08:54.431Z,100307.25
2023-05-10T15:11:22.683Z,100305.16
2023-05-10T15:13:50.935Z,100303.53
2023-05-10T15:16:19.512Z,100303.56
2023-05-10T15:18:48.011Z,100307.69
2023-05-10T15:21:16.749Z,100307.41
2023-05-10T15:23:45.176Z,100303.19
2023-05-10T15:26:14.912Z,100310.31
2023-05-10T15:28:43.334Z,100313.56
2023-05-10T15:31:12.213Z,100321.22
2023-05-10T15:33:40.793Z,100320.91
2023-05-10T15:36:09.493Z,100318.94
2023-05-10T15:38:38.349Z,100310.34
2023-05-10T15:41:06.962Z,100312.69
2023-05-10T15:43:36.544Z,100314.19
2023-05-10T15:46:06.885Z,100311.66
2023-05-10T15:48:35.426Z,100320.44
2023-05-10T15:51:03.941Z,100313.38
2023-05-10T15:53:32.424Z,100311.94
2023-05-10T15:56:00.923Z,100310.59
2023-05-10T15:58:29.412Z,100301.78
2023-05-10T16:00:59.319Z,100304.69
2023-05-10T16:03:27.898Z,100305.25
2023-05-10T16:05:56.710Z,100314.28
2023-05-10T16:08:25.660Z,100309.78
2023-05-10T16:10:54.444Z,100318.53
2023-05-10T16:13:22.758Z,100307.72
2023-05-10T16:15:51.282Z,100310.47
2023-05-10T16:18:20.966Z,100314.72
2023-05-10T16:20:49.610Z,100319.09
2023-05-10T16:23:18.209Z,100313.84
2023-05-10T16:25:46.774Z,100326.56
2023-05-10T16:28:15.289Z,100323.94
2023-05-10T16:30:43.543Z,100340.75
2023-05-10T16:33:12.214Z,100334.78
2023-05-10T16:35:42.004Z,100332.38
2023-05-10T16:38:11.146Z,100328.22
2023-05-10T16:40:39.806Z,100326.88
2023-05-10T16:43:08.603Z,100327.78
2023-05-10T16:45:37.168Z,100330.00
2023-05-10T16:48:06.012Z,100327.31
2023-05-10T16:50:34.552Z,100332.44
2023-05-10T16:53:04.198Z,100326.88
2023-05-10T16:55:32.739Z,100336.59
2023-05-10T16:58:02.810Z,100334.16
2023-05-10T17:00:31.118Z,100334.78
2023-05-10T17:02:59.720Z,100343.75
2023-05-10T17:05:28.213Z,100340.00
2023-05-10T17:07:57.002Z,100343.16
2023-05-10T17:10:26.564Z,100340.50
2023-05-10T17:12:55.093Z,100342.91
2023-05-10T17:15:23.313Z,100338.78
2023-05-10T17:17:51.929Z,100345.59
2023-05-10T17:20:20.835Z,100345.31
2023-05-10T17:22:50.550Z,100343.53
2023-05-10T17:25:19.449Z,100342.38
2023-05-10T17:27:49.325Z,100344.63
2023-05-10T17:30:22.481Z,100346.94
2023-05-10T17:32:51.189Z,100353.25
2023-05-10T17:35:19.765Z,100352.56
2023-05-10T17:37:48.361Z,100353.47
2023-05-10T17:40:16.808Z,100358.81
2023-05-10T17:42:45.445Z,100362.25
2023-05-10T17:45:15.256Z,100359.97
2023-05-10T17:47:43.751Z,100358.72
2023-05-10T17:50:12.381Z,100353.81
2023-05-10T17:52:41.295Z,100351.69
2023-05-10T17:55:10.978Z,100357.53
2023-05-10T17:57:39.680Z,100359.91
2023-05-10T18:00:10.452Z,100355.72
2023-05-10T18:02:40.136Z,100363.19
2023-05-10T18:05:09.415Z,100363.72
2023-05-10T18:07:38.040Z,100359.78
2023-05-10T18:10:07.899Z,100373.59
2023-05-10T18:12:36.382Z,100367.06
2023-05-10T18:15:05.372Z,100368.53
2023-05-10T18:17:34.979Z,100374.38
2023-05-10T18:20:06.047Z,100367.72
2023-05-10T18:22:34.739Z,100370.91
2023-05-10T18:25:03.745Z,100369.38
2023-05-10T18:27:32.841Z,100379.50
2023-05-10T18:30:01.051Z,100371.72
2023-05-10T18:32:29.849Z,100372.75
2023-05-10T18:34:58.877Z,100374.00
2023-05-10T18:37:28.504Z,100371.84
2023-05-10T18:39:57.650Z,100374.03
2023-05-10T18:42:26.618Z,100376.13
2023-05-10T18:44:55.304Z,100374.75
2023-05-10T18:47:23.841Z,100374.25
2023-05-10T18:49:52.684Z,100380.94
2023-05-10T18:52:21.211Z,100375.25
2023-05-10T18:54:51.036Z,100380.91
2023-05-10T18:57:21.117Z,100377.88
2023-05-10T18:59:50.188Z,100381.69
2023-05-10T19:02:18.908Z,100388.03
2023-05-10T19:04:47.289Z,100385.47
2023-05-10T19:07:15.842Z,100403.31
2023-05-10T19:09:44.362Z,100404.66
2023-05-10T19:12:13.920Z,100401.41
2023-05-10T19:14:42.409Z,100395.88
2023-05-10T19:17:11.827Z,100402.72
2023-05-10T19:19:40.452Z,100405.03
2023-05-10T19:22:09.014Z,100416.22
2023-05-10T19:24:37.489Z,100419.59
2023-05-10T19:27:05.713Z,100422.00
2023-05-10T19:29:35.397Z,100419.84
2023-05-10T19:32:04.428Z,100424.16
2023-05-10T19:34:33.015Z,100423.91
2023-05-10T19:37:01.207Z,100436.84
2023-05-10T19:39:30.829Z,100435.66
2023-05-10T19:41:59.664Z,100430.84
2023-05-10T19:44:28.257Z,100427.66
2023-05-10T19:46:58.262Z,100435.28
2023-05-10T19:49:26.988Z,100432.19
2023-05-10T19:51:55.496Z,100439.72
2023-05-10T19:54:24.080Z,100448.88
2023-05-10T19:56:52.622Z,100445.75
2023-05-10T19:59:21.137Z,100440.78
2023-05-10T20:01:49.656Z,100454.34
2023-05-10T20:04:21.566Z,100459.06
2023-05-10T20:06:49.837Z,100451.59
2023-05-10T20:09:18.326Z,100449.16
2023-05-10T20:11:46.941Z,100453.84
2023-05-10T20:14:15.419Z,100450.59
2023-05-10T20:16:43.944Z,100456.03
2023-05-10T20:19:12.584Z,100449.19
2023-05-10T20:21:42.726Z,100455.63
2023-05-10T20:24:11.353Z,100450.50
2023-05-10T20:26:39.894Z,100453.38
2023-05-10T20:29:09.343Z,100456.25
2023-05-10T20:31:37.889Z,100465.28
2023-05-10T20:34:06.508Z,100463.72
2023-05-10T20:36:35.018Z,100464.00
2023-05-10T20:39:04.624Z,100460.59
2023-05-10T20:41:33.141Z,100471.50
2023-05-10T20:44:01.652Z,100461.22
2023-05-10T20:46:30.337Z,100473.66
2023-05-10T20:48:59.508Z,100472.19
2023-05-10T20:51:29.901Z,100465.31
2023-05-10T20:54:01.676Z,100467.31
2023-05-10T20:56:31.347Z,100471.16
2023-05-10T20:58:59.843Z,100473.19
2023-05-10T21:01:28.481Z,100469.94
2023-05-10T21:03:57.011Z,100463.06
2023-05-10T21:06:25.278Z,100470.38
2023-05-10T21:08:53.507Z,100469.72
2023-05-10T21:11:22.396Z,100470.88
2023-05-10T21:13:52.459Z,100465.66
2023-05-10T21:16:21.056Z,100473.94
2023-05-10T21:18:49.728Z,100473.22
2023-05-10T21:21:18.291Z,100470.78
2023-05-10T21:23:47.733Z,100468.34
2023-05-10T21:26:16.938Z,100465.06
2023-05-10T21:28:45.907Z,100466.13
2023-05-10T21:31:16.028Z,100468.91
2023-05-10T21:33:45.644Z,100457.69
2023-05-10T21:36:14.254Z,100464.00
2023-05-10T21:38:44.391Z,100464.16
2023-05-10T21:41:12.791Z,100472.22
2023-05-10T21:43:41.513Z,100470.59
2023-05-10T21:46:10.284Z,100472.44
2023-05-10T21:48:39.899Z,100465.59
2023-05-10T21:51:08.414Z,100469.31
2023-05-10T21:53:38.915Z,100464.16
2023-05-10T21:56:08.227Z,100464.34
2023-05-10T21:58:36.739Z,100475.84
2023-05-10T22:01:05.396Z,100478.63
2023-05-10T22:03:34.025Z,100469.03
2023-05-10T22:06:03.699Z,100471.72
2023-05-10T22:08:32.251Z,100472.75
2023-05-10T22:11:00.769Z,100468.38
2023-05-10T22:13:28.935Z,100472.84
2023-05-10T22:15:57.496Z,100477.28
2023-05-10T22:18:26.068Z,100473.88
2023-05-10T22:20:54.658Z,100475.63
2023-05-10T22:23:24.259Z,100470.41
2023-05-10T22:25:52.797Z,100476.56
2023-05-10T22:28:21.321Z,100485.41
2023-05-10T22:30:49.927Z,100477.47
2023-05-10T22:33:18.670Z,100481.03
2023-05-10T22:35:47.271Z,100481.97
2023-05-10T22:38:15.850Z,100475.88
2023-05-10T22:40:45.534Z,100487.22
2023-05-10T22:43:14.036Z,100485.53
2023-05-10T22:45:42.235Z,100484.81
2023-05-10T22:48:10.676Z,100484.00
2023-05-10T22:50:39.252Z,100485.78
2023-05-10T22:53:07.768Z,100484.19
2023-05-10T22:55:37.123Z,100483.41
2023-05-10T22:58:07.007Z,100487.88
2023-05-10T23:00:35.611Z,100489.84
2023-05-10T23:03:04.555Z,100490.91
2023-05-10T23:05:33.309Z,100495.50
2023-05-10T23:08:01.938Z,100500.88
2023-05-10T23:10:32.173Z,100501.09
2023-05-10T23:13:00.387Z,100502.97
2023-05-10T23:15:29.949Z,100497.81
2023-05-10T23:18:00.920Z,100510.34
2023-05-10T23:20:29.896Z,100501.75
2023-05-10T23:22:58.426Z,100501.06
2023-05-10T23:25:27.227Z,100510.84
2023-05-10T23:27:55.449Z,100507.50
2023-05-10T23:30:24.007Z,100498.81
2023-05-10T23:32:53.576Z,100500.66
2023-05-10T23:35:22.179Z,100494.69
2023-05-10T23:37:50.688Z,100513.25
2023-05-10T23:40:19.545Z,100501.09
2023-05-10T23:42:48.537Z,100501.19
2023-05-10T23:45:17.217Z,100510.88
2023-05-10T23:47:45.842Z,100501.31
2023-05-10T23:50:15.817Z,100496.06
2023-05-10T23:52:44.394Z,100510.28
2023-05-10T23:55:13.268Z,100508.66
2023-05-10T23:57:41.797Z,100499.97
